sensor_id;sensor_type;location;lat;lon;timestamp;temperature;humidity
9393;DHT22;4736;52.508;13.422;2023-10-13T00:00:30;13.20;83.60
9393;DHT22;4736;52.508;13.422;2023-10-13T00:03:40;13.30;83.60
9393;DHT22;4736;52.508;13.422;2023-10-13T00:06:44;13.20;83.60
9393;DHT22;4736;52.508;13.422;2023-10-13T00:09:47;13.20;83.60
9393;DHT22;4736;52.508;13.422;2023-10-13T00:12:50;13.20;83.60
9393;DHT22;4736;52.508;13.422;2023-10-13T00:15:54;13.20;83.60
9393;DHT22;4736;52.508;13.422;2023-10-13T00:19:04;13.30;83.50
9393;DHT22;4736;52.508;13.422;2023-10-13T00:22:08;13.20;83.50
9393;DHT22;4736;52.508;13.422;2023-10-13T00:25:12;13.30;83.50
9393;DHT22;4736;52.508;13.422;2023-10-13T00:28:21;13.20;83.50
9393;DHT22;4736;52.508;13.422;2023-10-13T00:31:26;13.20;83.40
9393;DHT22;4736;52.508;13.422;2023-10-13T00:34:36;13.30;83.40
9393;DHT22;4736;52.508;13.422;2023-10-13T00:37:40;13.20;83.40
9393;DHT22;4736;52.508;13.422;2023-10-13T00:40:46;13.20;83.50
9393;DHT22;4736;52.508;13.422;2023-10-13T00:43:54;13.20;83.50
9393;DHT22;4736;52.508;13.422;2023-10-13T00:47:06;13.20;83.40
9393;DHT22;4736;52.508;13.422;2023-10-13T00:50:12;13.30;83.40
9393;DHT22;4736;52.508;13.422;2023-10-13T00:53:17;13.30;83.30
9393;DHT22;4736;52.508;13.422;2023-10-13T00:56:20;13.20;83.20
9393;DHT22;4736;52.508;13.422;2023-10-13T00:59:24;13.20;83.30
9393;DHT22;4736;52.508;13.422;2023-10-13T01:02:27;13.20;83.30
9393;DHT22;4736;52.508;13.422;2023-10-13T01:05:42;13.20;83.30
9393;DHT22;4736;52.508;13.422;2023-10-13T01:08:46;13.20;83.20
9393;DHT22;4736;52.508;13.422;2023-10-13T01:11:52;13.10;83.40
9393;DHT22;4736;52.508;13.422;2023-10-13T01:14:56;13.20;83.50
9393;DHT22;4736;52.508;13.422;2023-10-13T01:18:06;13.10;83.50
9393;DHT22;4736;52.508;13.422;2023-10-13T01:21:14;13.10;83.60
9393;DHT22;4736;52.508;13.422;2023-10-13T01:24:23;13.10;83.70
9393;DHT22;4736;52.508;13.422;2023-10-13T01:27:28;13.20;83.50
9393;DHT22;4736;52.508;13.422;2023-10-13T01:30:30;13.20;83.70
9393;DHT22;4736;52.508;13.422;2023-10-13T01:33:33;13.10;83.90
9393;DHT22;4736;52.508;13.422;2023-10-13T01:36:36;13.10;83.90
9393;DHT22;4736;52.508;13.422;2023-10-13T01:39:43;13.20;84.00
9393;DHT22;4736;52.508;13.422;2023-10-13T01:42:49;13.10;84.30
9393;DHT22;4736;52.508;13.422;2023-10-13T01:45:57;13.10;84.30
9393;DHT22;4736;52.508;13.422;2023-10-13T01:49:00;13.10;84.30
9393;DHT22;4736;52.508;13.422;2023-10-13T01:52:04;13.10;84.40
9393;DHT22;4736;52.508;13.422;2023-10-13T01:55:10;13.10;84.40
9393;DHT22;4736;52.508;13.422;2023-10-13T01:58:15;13.10;84.50
9393;DHT22;4736;52.508;13.422;2023-10-13T02:01:18;13.10;84.60
9393;DHT22;4736;52.508;13.422;2023-10-13T02:04:29;13.10;84.50
9393;DHT22;4736;52.508;13.422;2023-10-13T02:07:34;13.10;84.60
9393;DHT22;4736;52.508;13.422;2023-10-13T02:10:42;13.10;84.60
9393;DHT22;4736;52.508;13.422;2023-10-13T02:13:45;13.10;84.80
9393;DHT22;4736;52.508;13.422;2023-10-13T02:16:55;13.10;84.90
9393;DHT22;4736;52.508;13.422;2023-10-13T02:20:13;13.10;85.00
9393;DHT22;4736;52.508;13.422;2023-10-13T02:23:17;13.10;85.00
9393;DHT22;4736;52.508;13.422;2023-10-13T02:26:21;13.00;85.30
9393;DHT22;4736;52.508;13.422;2023-10-13T02:29:32;13.10;85.20
9393;DHT22;4736;52.508;13.422;2023-10-13T02:32:41;13.10;85.20
9393;DHT22;4736;52.508;13.422;2023-10-13T02:35:46;13.10;85.30
9393;DHT22;4736;52.508;13.422;2023-10-13T02:38:55;13.10;85.10
9393;DHT22;4736;52.508;13.422;2023-10-13T02:42:01;13.10;85.20
9393;DHT22;4736;52.508;13.422;2023-10-13T02:45:04;13.10;85.20
9393;DHT22;4736;52.508;13.422;2023-10-13T02:48:08;13.10;85.20
9393;DHT22;4736;52.508;13.422;2023-10-13T02:51:15;13.10;85.20
9393;DHT22;4736;52.508;13.422;2023-10-13T02:54:19;13.10;85.50
9393;DHT22;4736;52.508;13.422;2023-10-13T02:57:23;13.10;85.50
9393;DHT22;4736;52.508;13.422;2023-10-13T03:00:27;13.10;85.40
9393;DHT22;4736;52.508;13.422;2023-10-13T03:03:33;13.10;85.40
9393;DHT22;4736;52.508;13.422;2023-10-13T03:06:36;13.10;85.50
9393;DHT22;4736;52.508;13.422;2023-10-13T03:09:42;13.10;86.00
9393;DHT22;4736;52.508;13.422;2023-10-13T03:12:54;13.10;85.90
9393;DHT22;4736;52.508;13.422;2023-10-13T03:15:57;13.10;86.10
9393;DHT22;4736;52.508;13.422;2023-10-13T03:19:01;13.10;86.00
9393;DHT22;4736;52.508;13.422;2023-10-13T03:22:10;13.10;86.00
9393;DHT22;4736;52.508;13.422;2023-10-13T03:25:15;13.10;85.90
9393;DHT22;4736;52.508;13.422;2023-10-13T03:28:26;13.20;85.90
9393;DHT22;4736;52.508;13.422;2023-10-13T03:31:36;13.20;85.90
9393;DHT22;4736;52.508;13.422;2023-10-13T03:34:41;13.20;85.90
9393;DHT22;4736;52.508;13.422;2023-10-13T03:37:51;13.30;85.90
9393;DHT22;4736;52.508;13.422;2023-10-13T03:40:55;13.30;85.90
9393;DHT22;4736;52.508;13.422;2023-10-13T03:44:10;13.30;85.90
9393;DHT22;4736;52.508;13.422;2023-10-13T03:47:19;13.30;85.90
9393;DHT22;4736;52.508;13.422;2023-10-13T03:50:28;13.30;86.10
9393;DHT22;4736;52.508;13.422;2023-10-13T03:53:35;13.30;86.10
9393;DHT22;4736;52.508;13.422;2023-10-13T03:56:38;13.30;86.20
9393;DHT22;4736;52.508;13.422;2023-10-13T03:59:44;13.30;86.30
9393;DHT22;4736;52.508;13.422;2023-10-13T04:02:50;13.30;86.30
9393;DHT22;4736;52.508;13.422;2023-10-13T04:06:06;13.30;86.30
9393;DHT22;4736;52.508;13.422;2023-10-13T04:09:12;13.30;86.20
9393;DHT22;4736;52.508;13.422;2023-10-13T04:12:32;13.30;86.30
9393;DHT22;4736;52.508;13.422;2023-10-13T04:15:57;13.30;86.30
9393;DHT22;4736;52.508;13.422;2023-10-13T04:19:36;13.30;86.30
9393;DHT22;4736;52.508;13.422;2023-10-13T04:22:59;13.40;86.30
9393;DHT22;4736;52.508;13.422;2023-10-13T04:26:21;13.50;86.40
9393;DHT22;4736;52.508;13.422;2023-10-13T04:29:23;13.50;86.20
9393;DHT22;4736;52.508;13.422;2023-10-13T04:32:49;13.50;86.20
9393;DHT22;4736;52.508;13.422;2023-10-13T04:36:12;13.50;86.10
9393;DHT22;4736;52.508;13.422;2023-10-13T04:39:18;13.50;86.20
9393;DHT22;4736;52.508;13.422;2023-10-13T04:42:37;13.50;86.30
9393;DHT22;4736;52.508;13.422;2023-10-13T04:45:52;13.60;86.40
9393;DHT22;4736;52.508;13.422;2023-10-13T04:48:58;13.60;86.30
9393;DHT22;4736;52.508;13.422;2023-10-13T04:52:05;13.60;86.30
9393;DHT22;4736;52.508;13.422;2023-10-13T04:55:29;13.60;86.30
9393;DHT22;4736;52.508;13.422;2023-10-13T04:59:01;13.60;86.40
9393;DHT22;4736;52.508;13.422;2023-10-13T05:02:37;13.60;86.40
9393;DHT22;4736;52.508;13.422;2023-10-13T05:06:19;13.60;86.40
9393;DHT22;4736;52.508;13.422;2023-10-13T05:09:40;13.70;86.50
9393;DHT22;4736;52.508;13.422;2023-10-13T05:13:00;13.70;86.60
9393;DHT22;4736;52.508;13.422;2023-10-13T05:16:21;13.70;86.40
9393;DHT22;4736;52.508;13.422;2023-10-13T05:19:42;13.80;86.40
9393;DHT22;4736;52.508;13.422;2023-10-13T05:23:04;13.80;86.40
9393;DHT22;4736;52.508;13.422;2023-10-13T05:26:24;13.80;86.40
9393;DHT22;4736;52.508;13.422;2023-10-13T05:29:47;13.90;86.40
9393;DHT22;4736;52.508;13.422;2023-10-13T05:33:08;13.90;86.30
9393;DHT22;4736;52.508;13.422;2023-10-13T05:36:29;13.90;86.30
9393;DHT22;4736;52.508;13.422;2023-10-13T05:39:51;13.90;86.40
9393;DHT22;4736;52.508;13.422;2023-10-13T05:43:12;14.00;86.30
9393;DHT22;4736;52.508;13.422;2023-10-13T05:46:33;14.00;86.30
9393;DHT22;4736;52.508;13.422;2023-10-13T05:50:03;14.10;86.00
9393;DHT22;4736;52.508;13.422;2023-10-13T05:53:14;14.10;86.00
9393;DHT22;4736;52.508;13.422;2023-10-13T05:56:36;14.10;86.00
9393;DHT22;4736;52.508;13.422;2023-10-13T05:59:57;14.10;86.10
9393;DHT22;4736;52.508;13.422;2023-10-13T06:03:17;14.10;86.30
9393;DHT22;4736;52.508;13.422;2023-10-13T06:06:38;14.10;86.30
9393;DHT22;4736;52.508;13.422;2023-10-13T06:09:58;14.10;86.50
9393;DHT22;4736;52.508;13.422;2023-10-13T06:13:20;14.20;86.50
9393;DHT22;4736;52.508;13.422;2023-10-13T06:16:41;14.20;86.60
9393;DHT22;4736;52.508;13.422;2023-10-13T06:20:02;14.20;86.50
9393;DHT22;4736;52.508;13.422;2023-10-13T06:23:22;14.30;86.60
9393;DHT22;4736;52.508;13.422;2023-10-13T06:26:43;14.30;86.40
9393;DHT22;4736;52.508;13.422;2023-10-13T06:30:07;14.40;86.40
9393;DHT22;4736;52.508;13.422;2023-10-13T06:33:10;14.40;86.10
9393;DHT22;4736;52.508;13.422;2023-10-13T06:36:13;14.50;86.10
9393;DHT22;4736;52.508;13.422;2023-10-13T06:39:16;14.50;86.10
9393;DHT22;4736;52.508;13.422;2023-10-13T06:42:36;14.50;85.90
9393;DHT22;4736;52.508;13.422;2023-10-13T06:45:46;14.60;85.80
9393;DHT22;4736;52.508;13.422;2023-10-13T06:48:58;14.60;85.80
9393;DHT22;4736;52.508;13.422;2023-10-13T06:52:04;14.60;85.80
9393;DHT22;4736;52.508;13.422;2023-10-13T06:55:08;14.60;85.80
9393;DHT22;4736;52.508;13.422;2023-10-13T06:58:19;14.60;86.00
9393;DHT22;4736;52.508;13.422;2023-10-13T07:01:28;14.70;85.90
9393;DHT22;4736;52.508;13.422;2023-10-13T07:04:31;14.80;85.80
9393;DHT22;4736;52.508;13.422;2023-10-13T07:07:35;14.90;85.90
9393;DHT22;4736;52.508;13.422;2023-10-13T07:10:47;15.10;85.40
9393;DHT22;4736;52.508;13.422;2023-10-13T07:13:53;15.20;85.00
9393;DHT22;4736;52.508;13.422;2023-10-13T07:17:02;15.40;84.50
9393;DHT22;4736;52.508;13.422;2023-10-13T07:20:08;15.50;84.20
9393;DHT22;4736;52.508;13.422;2023-10-13T07:23:18;15.50;84.00
9393;DHT22;4736;52.508;13.422;2023-10-13T07:26:24;15.70;83.80
9393;DHT22;4736;52.508;13.422;2023-10-13T07:29:28;15.70;83.30
9393;DHT22;4736;52.508;13.422;2023-10-13T07:32:33;15.80;82.90
9393;DHT22;4736;52.508;13.422;2023-10-13T07:35:37;15.70;83.20
9393;DHT22;4736;52.508;13.422;2023-10-13T07:38:40;15.70;83.30
9393;DHT22;4736;52.508;13.422;2023-10-13T07:41:44;15.70;83.30
9393;DHT22;4736;52.508;13.422;2023-10-13T07:44:53;15.80;83.30
9393;DHT22;4736;52.508;13.422;2023-10-13T07:47:59;15.80;83.30
9393;DHT22;4736;52.508;13.422;2023-10-13T07:51:03;16.00;82.70
9393;DHT22;4736;52.508;13.422;2023-10-13T07:54:07;16.00;82.80
9393;DHT22;4736;52.508;13.422;2023-10-13T07:57:13;16.00;82.30
9393;DHT22;4736;52.508;13.422;2023-10-13T08:00:19;16.10;82.30
9393;DHT22;4736;52.508;13.422;2023-10-13T08:03:33;16.10;82.20
9393;DHT22;4736;52.508;13.422;2023-10-13T08:06:45;16.10;82.00
9393;DHT22;4736;52.508;13.422;2023-10-13T08:09:51;16.20;81.80
9393;DHT22;4736;52.508;13.422;2023-10-13T08:12:55;16.20;81.80
9393;DHT22;4736;52.508;13.422;2023-10-13T08:16:01;16.20;81.90
9393;DHT22;4736;52.508;13.422;2023-10-13T08:19:11;16.40;81.90
9393;DHT22;4736;52.508;13.422;2023-10-13T08:22:15;16.40;81.50
9393;DHT22;4736;52.508;13.422;2023-10-13T08:25:28;16.40;81.60
9393;DHT22;4736;52.508;13.422;2023-10-13T08:28:56;16.50;81.60
9393;DHT22;4736;52.508;13.422;2023-10-13T08:31:59;16.70;81.10
9393;DHT22;4736;52.508;13.422;2023-10-13T08:35:29;16.80;80.40
9393;DHT22;4736;52.508;13.422;2023-10-13T08:38:39;17.00;79.80
9393;DHT22;4736;52.508;13.422;2023-10-13T08:41:53;16.90;79.80
9393;DHT22;4736;52.508;13.422;2023-10-13T08:45:15;16.90;79.90
9393;DHT22;4736;52.508;13.422;2023-10-13T08:48:44;16.90;80.30
9393;DHT22;4736;52.508;13.422;2023-10-13T08:51:52;16.90;79.80
9393;DHT22;4736;52.508;13.422;2023-10-13T08:55:09;17.00;79.80
9393;DHT22;4736;52.508;13.422;2023-10-13T08:58:43;17.00;79.70
9393;DHT22;4736;52.508;13.422;2023-10-13T09:02:00;17.00;79.80
9393;DHT22;4736;52.508;13.422;2023-10-13T09:05:17;17.10;79.50
9393;DHT22;4736;52.508;13.422;2023-10-13T09:08:36;17.10;79.40
9393;DHT22;4736;52.508;13.422;2023-10-13T09:11:47;17.20;79.50
9393;DHT22;4736;52.508;13.422;2023-10-13T09:14:56;17.20;79.60
9393;DHT22;4736;52.508;13.422;2023-10-13T09:17:59;17.10;79.80
9393;DHT22;4736;52.508;13.422;2023-10-13T09:21:15;17.20;79.60
9393;DHT22;4736;52.508;13.422;2023-10-13T09:24:38;17.20;79.20
9393;DHT22;4736;52.508;13.422;2023-10-13T09:27:48;17.20;79.50
9393;DHT22;4736;52.508;13.422;2023-10-13T09:30:54;17.30;79.60
9393;DHT22;4736;52.508;13.422;2023-10-13T09:33:59;17.20;79.30
9393;DHT22;4736;52.508;13.422;2023-10-13T09:37:05;17.20;79.60
9393;DHT22;4736;52.508;13.422;2023-10-13T09:40:15;17.30;79.80
9393;DHT22;4736;52.508;13.422;2023-10-13T09:43:28;17.30;79.90
9393;DHT22;4736;52.508;13.422;2023-10-13T09:46:35;17.40;79.70
9393;DHT22;4736;52.508;13.422;2023-10-13T09:49:44;17.50;79.60
9393;DHT22;4736;52.508;13.422;2023-10-13T09:52:52;17.40;79.40
9393;DHT22;4736;52.508;13.422;2023-10-13T09:56:03;17.20;79.80
9393;DHT22;4736;52.508;13.422;2023-10-13T09:59:18;17.20;80.50
9393;DHT22;4736;52.508;13.422;2023-10-13T10:02:21;17.20;80.60
9393;DHT22;4736;52.508;13.422;2023-10-13T10:05:29;17.20;80.50
9393;DHT22;4736;52.508;13.422;2023-10-13T10:08:36;17.20;80.50
9393;DHT22;4736;52.508;13.422;2023-10-13T10:12:06;17.20;80.70
9393;DHT22;4736;52.508;13.422;2023-10-13T10:15:23;17.20;81.20
9393;DHT22;4736;52.508;13.422;2023-10-13T10:18:32;17.30;80.70
9393;DHT22;4736;52.508;13.422;2023-10-13T10:21:36;17.20;81.00
9393;DHT22;4736;52.508;13.422;2023-10-13T10:24:40;17.30;80.80
9393;DHT22;4736;52.508;13.422;2023-10-13T10:27:54;17.40;80.90
9393;DHT22;4736;52.508;13.422;2023-10-13T10:31:05;17.40;80.90
9393;DHT22;4736;52.508;13.422;2023-10-13T10:34:14;17.40;81.10
9393;DHT22;4736;52.508;13.422;2023-10-13T10:37:21;17.50;80.80
9393;DHT22;4736;52.508;13.422;2023-10-13T10:40:27;17.50;80.80
9393;DHT22;4736;52.508;13.422;2023-10-13T10:43:50;17.50;80.70
9393;DHT22;4736;52.508;13.422;2023-10-13T10:46:55;17.50;81.20
9393;DHT22;4736;52.508;13.422;2023-10-13T10:50:02;17.50;81.50
9393;DHT22;4736;52.508;13.422;2023-10-13T10:53:20;17.50;81.90
9393;DHT22;4736;52.508;13.422;2023-10-13T10:56:35;17.50;82.30
9393;DHT22;4736;52.508;13.422;2023-10-13T10:59:41;17.50;82.60
9393;DHT22;4736;52.508;13.422;2023-10-13T11:02:53;17.50;82.90
9393;DHT22;4736;52.508;13.422;2023-10-13T11:05:57;17.40;83.20
9393;DHT22;4736;52.508;13.422;2023-10-13T11:09:02;17.40;83.30
9393;DHT22;4736;52.508;13.422;2023-10-13T11:12:20;17.40;83.50
9393;DHT22;4736;52.508;13.422;2023-10-13T11:15:41;17.50;83.60
9393;DHT22;4736;52.508;13.422;2023-10-13T11:18:46;17.50;83.30
9393;DHT22;4736;52.508;13.422;2023-10-13T11:21:50;17.50;83.40
9393;DHT22;4736;52.508;13.422;2023-10-13T11:24:56;17.60;83.40
9393;DHT22;4736;52.508;13.422;2023-10-13T11:28:10;17.60;83.20
9393;DHT22;4736;52.508;13.422;2023-10-13T11:31:20;17.60;83.20
9393;DHT22;4736;52.508;13.422;2023-10-13T11:34:26;17.70;83.30
9393;DHT22;4736;52.508;13.422;2023-10-13T11:37:42;17.80;82.90
9393;DHT22;4736;52.508;13.422;2023-10-13T11:40:45;17.80;82.80
9393;DHT22;4736;52.508;13.422;2023-10-13T11:44:10;17.90;82.60
9393;DHT22;4736;52.508;13.422;2023-10-13T11:47:27;17.90;82.40
9393;DHT22;4736;52.508;13.422;2023-10-13T11:50:50;17.90;82.20
9393;DHT22;4736;52.508;13.422;2023-10-13T11:53:53;18.00;82.30
9393;DHT22;4736;52.508;13.422;2023-10-13T11:56:57;18.00;82.10
9393;DHT22;4736;52.508;13.422;2023-10-13T12:00:01;18.00;82.30
9393;DHT22;4736;52.508;13.422;2023-10-13T12:14:00;18.00;81.90
9393;DHT22;4736;52.508;13.422;2023-10-13T12:17:13;18.40;80.60
9393;DHT22;4736;52.508;13.422;2023-10-13T12:20:20;18.50;79.90
9393;DHT22;4736;52.508;13.422;2023-10-13T12:23:34;18.50;80.00
9393;DHT22;4736;52.508;13.422;2023-10-13T12:26:38;18.50;79.80
9393;DHT22;4736;52.508;13.422;2023-10-13T12:29:45;18.60;79.80
9393;DHT22;4736;52.508;13.422;2023-10-13T12:32:49;18.70;79.60
9393;DHT22;4736;52.508;13.422;2023-10-13T12:36:01;18.80;79.30
9393;DHT22;4736;52.508;13.422;2023-10-13T12:39:11;18.90;78.80
9393;DHT22;4736;52.508;13.422;2023-10-13T12:42:32;18.90;79.00
9393;DHT22;4736;52.508;13.422;2023-10-13T12:45:54;18.90;79.00
9393;DHT22;4736;52.508;13.422;2023-10-13T12:49:18;19.00;79.00
9393;DHT22;4736;52.508;13.422;2023-10-13T12:52:41;19.10;77.90
9393;DHT22;4736;52.508;13.422;2023-10-13T12:55:47;19.20;77.90
9393;DHT22;4736;52.508;13.422;2023-10-13T12:58:54;19.20;77.90
9393;DHT22;4736;52.508;13.422;2023-10-13T13:02:01;19.30;77.90
9393;DHT22;4736;52.508;13.422;2023-10-13T13:05:09;19.30;77.80
9393;DHT22;4736;52.508;13.422;2023-10-13T13:08:15;19.30;77.50
9393;DHT22;4736;52.508;13.422;2023-10-13T13:11:25;19.50;77.30
9393;DHT22;4736;52.508;13.422;2023-10-13T13:14:30;19.50;77.20
9393;DHT22;4736;52.508;13.422;2023-10-13T13:17:38;19.60;76.90
9393;DHT22;4736;52.508;13.422;2023-10-13T13:20:42;19.70;76.60
9393;DHT22;4736;52.508;13.422;2023-10-13T13:23:56;19.70;76.50
9393;DHT22;4736;52.508;13.422;2023-10-13T13:27:00;19.70;76.50
9393;DHT22;4736;52.508;13.422;2023-10-13T13:30:08;19.70;76.40
9393;DHT22;4736;52.508;13.422;2023-10-13T13:33:16;19.90;75.60
9393;DHT22;4736;52.508;13.422;2023-10-13T13:36:25;20.10;75.60
9393;DHT22;4736;52.508;13.422;2023-10-13T13:39:29;20.20;74.70
9393;DHT22;4736;52.508;13.422;2023-10-13T13:42:33;20.30;74.60
9393;DHT22;4736;52.508;13.422;2023-10-13T13:45:39;20.30;74.40
9393;DHT22;4736;52.508;13.422;2023-10-13T13:48:45;20.40;74.00
9393;DHT22;4736;52.508;13.422;2023-10-13T13:51:49;20.50;74.00
9393;DHT22;4736;52.508;13.422;2023-10-13T13:54:54;20.40;73.70
9393;DHT22;4736;52.508;13.422;2023-10-13T13:58:10;20.40;73.80
9393;DHT22;4736;52.508;13.422;2023-10-13T14:01:15;20.50;73.50
9393;DHT22;4736;52.508;13.422;2023-10-13T14:04:22;20.50;73.30
9393;DHT22;4736;52.508;13.422;2023-10-13T14:07:26;20.60;72.40
9393;DHT22;4736;52.508;13.422;2023-10-13T14:10:35;20.70;72.40
9393;DHT22;4736;52.508;13.422;2023-10-13T14:13:58;20.80;72.00
9393;DHT22;4736;52.508;13.422;2023-10-13T14:17:06;20.90;71.90
9393;DHT22;4736;52.508;13.422;2023-10-13T14:20:14;21.00;71.70
9393;DHT22;4736;52.508;13.422;2023-10-13T14:23:22;21.10;71.10
9393;DHT22;4736;52.508;13.422;2023-10-13T14:26:27;21.10;71.10
9393;DHT22;4736;52.508;13.422;2023-10-13T14:29:30;21.10;70.90
9393;DHT22;4736;52.508;13.422;2023-10-13T14:32:34;21.10;70.50
9393;DHT22;4736;52.508;13.422;2023-10-13T14:35:44;21.10;70.40
9393;DHT22;4736;52.508;13.422;2023-10-13T14:38:50;21.10;70.00
9393;DHT22;4736;52.508;13.422;2023-10-13T14:41:54;21.10;69.60
9393;DHT22;4736;52.508;13.422;2023-10-13T14:44:59;21.20;69.20
9393;DHT22;4736;52.508;13.422;2023-10-13T14:48:03;21.20;69.00
9393;DHT22;4736;52.508;13.422;2023-10-13T14:51:13;21.10;68.90
9393;DHT22;4736;52.508;13.422;2023-10-13T14:54:18;21.10;68.60
9393;DHT22;4736;52.508;13.422;2023-10-13T14:57:34;21.10;68.90
9393;DHT22;4736;52.508;13.422;2023-10-13T15:00:46;21.10;69.10
9393;DHT22;4736;52.508;13.422;2023-10-13T15:03:53;21.00;69.00
9393;DHT22;4736;52.508;13.422;2023-10-13T15:07:01;21.00;69.30
9393;DHT22;4736;52.508;13.422;2023-10-13T15:10:05;21.00;69.00
9393;DHT22;4736;52.508;13.422;2023-10-13T15:13:09;21.00;68.90
9393;DHT22;4736;52.508;13.422;2023-10-13T15:16:16;20.90;69.00
9393;DHT22;4736;52.508;13.422;2023-10-13T15:19:20;20.90;69.20
9393;DHT22;4736;52.508;13.422;2023-10-13T15:22:38;20.90;69.00
9393;DHT22;4736;52.508;13.422;2023-10-13T15:25:41;20.80;69.10
9393;DHT22;4736;52.508;13.422;2023-10-13T15:28:51;20.80;69.20
9393;DHT22;4736;52.508;13.422;2023-10-13T15:31:55;20.70;69.70
9393;DHT22;4736;52.508;13.422;2023-10-13T15:35:29;20.60;69.80
9393;DHT22;4736;52.508;13.422;2023-10-13T15:38:34;20.50;70.00
9393;DHT22;4736;52.508;13.422;2023-10-13T15:41:39;20.50;70.00
9393;DHT22;4736;52.508;13.422;2023-10-13T15:44:42;20.50;70.10
9393;DHT22;4736;52.508;13.422;2023-10-13T15:47:46;20.50;70.00
9393;DHT22;4736;52.508;13.422;2023-10-13T15:50:53;20.50;70.20
9393;DHT22;4736;52.508;13.422;2023-10-13T15:53:58;20.50;70.10
9393;DHT22;4736;52.508;13.422;2023-10-13T15:57:02;20.40;70.20
9393;DHT22;4736;52.508;13.422;2023-10-13T16:00:09;20.40;70.20
9393;DHT22;4736;52.508;13.422;2023-10-13T16:03:26;20.30;70.50
9393;DHT22;4736;52.508;13.422;2023-10-13T16:06:31;20.30;70.50
9393;DHT22;4736;52.508;13.422;2023-10-13T16:09:36;20.30;70.20
9393;DHT22;4736;52.508;13.422;2023-10-13T16:12:41;20.30;70.30
9393;DHT22;4736;52.508;13.422;2023-10-13T16:15:46;20.20;70.10
9393;DHT22;4736;52.508;13.422;2023-10-13T16:18:51;20.10;70.40
9393;DHT22;4736;52.508;13.422;2023-10-13T16:21:54;20.10;70.10
9393;DHT22;4736;52.508;13.422;2023-10-13T16:25:00;20.10;70.60
9393;DHT22;4736;52.508;13.422;2023-10-13T16:28:20;20.10;69.90
9393;DHT22;4736;52.508;13.422;2023-10-13T16:31:24;20.00;69.90
9393;DHT22;4736;52.508;13.422;2023-10-13T16:34:30;20.00;70.20
9393;DHT22;4736;52.508;13.422;2023-10-13T16:37:33;20.00;69.90
9393;DHT22;4736;52.508;13.422;2023-10-13T16:40:38;20.00;69.80
9393;DHT22;4736;52.508;13.422;2023-10-13T16:43:42;20.00;69.70
9393;DHT22;4736;52.508;13.422;2023-10-13T16:46:45;20.00;69.80
9393;DHT22;4736;52.508;13.422;2023-10-13T16:49:49;19.90;69.80
9393;DHT22;4736;52.508;13.422;2023-10-13T16:52:52;19.80;69.90
9393;DHT22;4736;52.508;13.422;2023-10-13T16:56:00;19.90;69.80
9393;DHT22;4736;52.508;13.422;2023-10-13T16:59:07;19.80;69.70
9393;DHT22;4736;52.508;13.422;2023-10-13T17:02:11;19.80;69.50
9393;DHT22;4736;52.508;13.422;2023-10-13T17:05:16;19.80;69.50
9393;DHT22;4736;52.508;13.422;2023-10-13T17:08:20;19.80;69.40
9393;DHT22;4736;52.508;13.422;2023-10-13T17:11:32;19.70;69.70
9393;DHT22;4736;52.508;13.422;2023-10-13T17:14:37;19.70;69.20
9393;DHT22;4736;52.508;13.422;2023-10-13T17:17:42;19.80;68.90
9393;DHT22;4736;52.508;13.422;2023-10-13T17:20:46;19.90;68.90
9393;DHT22;4736;52.508;13.422;2023-10-13T17:23:51;19.80;68.70
9393;DHT22;4736;52.508;13.422;2023-10-13T17:26:56;19.80;68.70
9393;DHT22;4736;52.508;13.422;2023-10-13T17:30:03;19.80;68.50
9393;DHT22;4736;52.508;13.422;2023-10-13T17:33:11;19.90;68.20
9393;DHT22;4736;52.508;13.422;2023-10-13T17:36:18;20.00;67.70
9393;DHT22;4736;52.508;13.422;2023-10-13T17:39:23;20.00;67.30
9393;DHT22;4736;52.508;13.422;2023-10-13T17:42:29;20.10;66.90
9393;DHT22;4736;52.508;13.422;2023-10-13T17:45:39;20.10;67.10
9393;DHT22;4736;52.508;13.422;2023-10-13T17:48:43;20.10;66.80
9393;DHT22;4736;52.508;13.422;2023-10-13T17:51:47;20.10;66.50
9393;DHT22;4736;52.508;13.422;2023-10-13T17:54:50;20.10;66.10
9393;DHT22;4736;52.508;13.422;2023-10-13T17:57:55;20.10;66.30
9393;DHT22;4736;52.508;13.422;2023-10-13T18:01:05;20.10;65.80
9393;DHT22;4736;52.508;13.422;2023-10-13T18:04:08;20.20;65.60
9393;DHT22;4736;52.508;13.422;2023-10-13T18:07:17;20.10;66.00
9393;DHT22;4736;52.508;13.422;2023-10-13T18:10:20;20.10;65.60
9393;DHT22;4736;52.508;13.422;2023-10-13T18:13:24;20.10;65.80
9393;DHT22;4736;52.508;13.422;2023-10-13T18:16:28;20.10;65.70
9393;DHT22;4736;52.508;13.422;2023-10-13T18:19:32;20.10;65.80
9393;DHT22;4736;52.508;13.422;2023-10-13T18:22:36;20.10;65.80
9393;DHT22;4736;52.508;13.422;2023-10-13T18:25:40;20.10;66.00
9393;DHT22;4736;52.508;13.422;2023-10-13T18:28:46;20.00;66.20
9393;DHT22;4736;52.508;13.422;2023-10-13T18:31:52;20.00;66.10
9393;DHT22;4736;52.508;13.422;2023-10-13T18:34:55;20.00;65.80
9393;DHT22;4736;52.508;13.422;2023-10-13T18:37:59;20.10;65.60
9393;DHT22;4736;52.508;13.422;2023-10-13T18:41:06;20.20;65.70
9393;DHT22;4736;52.508;13.422;2023-10-13T18:44:11;20.20;65.30
9393;DHT22;4736;52.508;13.422;2023-10-13T18:47:14;20.20;64.90
9393;DHT22;4736;52.508;13.422;2023-10-13T18:50:18;20.30;64.60
9393;DHT22;4736;52.508;13.422;2023-10-13T18:53:22;20.40;64.20
9393;DHT22;4736;52.508;13.422;2023-10-13T18:56:26;20.40;64.10
9393;DHT22;4736;52.508;13.422;2023-10-13T18:59:31;20.40;64.30
9393;DHT22;4736;52.508;13.422;2023-10-13T19:02:35;20.40;63.60
9393;DHT22;4736;52.508;13.422;2023-10-13T19:05:42;20.40;63.70
9393;DHT22;4736;52.508;13.422;2023-10-13T19:08:47;20.30;64.00
9393;DHT22;4736;52.508;13.422;2023-10-13T19:11:53;20.30;63.60
9393;DHT22;4736;52.508;13.422;2023-10-13T19:14:59;20.30;63.70
9393;DHT22;4736;52.508;13.422;2023-10-13T19:18:02;20.40;63.10
9393;DHT22;4736;52.508;13.422;2023-10-13T19:21:09;20.30;63.40
9393;DHT22;4736;52.508;13.422;2023-10-13T19:24:16;20.30;63.70
9393;DHT22;4736;52.508;13.422;2023-10-13T19:27:21;20.30;62.90
9393;DHT22;4736;52.508;13.422;2023-10-13T19:30:38;20.30;63.10
9393;DHT22;4736;52.508;13.422;2023-10-13T19:33:45;20.40;62.70
9393;DHT22;4736;52.508;13.422;2023-10-13T19:36:53;20.40;62.50
9393;DHT22;4736;52.508;13.422;2023-10-13T19:39:56;20.30;62.70
9393;DHT22;4736;52.508;13.422;2023-10-13T19:43:01;20.50;62.20
9393;DHT22;4736;52.508;13.422;2023-10-13T19:46:15;20.60;61.30
9393;DHT22;4736;52.508;13.422;2023-10-13T19:49:18;20.70;61.10
9393;DHT22;4736;52.508;13.422;2023-10-13T19:52:22;20.70;60.90
9393;DHT22;4736;52.508;13.422;2023-10-13T19:55:26;20.60;61.00
9393;DHT22;4736;52.508;13.422;2023-10-13T19:58:32;20.60;61.00
9393;DHT22;4736;52.508;13.422;2023-10-13T20:01:39;20.70;60.70
9393;DHT22;4736;52.508;13.422;2023-10-13T20:04:44;20.60;61.10
9393;DHT22;4736;52.508;13.422;2023-10-13T20:07:48;20.50;61.30
9393;DHT22;4736;52.508;13.422;2023-10-13T20:10:51;20.50;61.40
9393;DHT22;4736;52.508;13.422;2023-10-13T20:13:54;20.50;61.00
9393;DHT22;4736;52.508;13.422;2023-10-13T20:17:00;20.50;61.00
9393;DHT22;4736;52.508;13.422;2023-10-13T20:20:04;20.50;61.20
9393;DHT22;4736;52.508;13.422;2023-10-13T20:23:07;20.40;61.10